Terminal Aerodrome Forecast
Issued by NWS Sterling, VA

Current Version | Previous Version | Text Only | Print | Product List | Glossary Off
Versions: 1 2 3 4 5 6 7 8 9 10 11 12 13 14 15 16 17 18 19 20 21 22 23 24 25 26 27 28 29

000
FTUS41 KLWX 160800 AAA
TAFIAD
TAF AMD
KIAD 160841Z 1609/1712 VRB04KT P6SM BKN220
     FM161000 15004KT 6SM BR SCT030 BKN100
     FM161600 17007KT 5SM -SHRA OVC030
     FM162100 21004KT P6SM VCSH OVC020
     FM170100 26005KT P6SM SCT050=

USA.gov is the U.S. government's official web portal to all federal, state and local government web resources and services.